Pagrindinis puslapis
METAR-TAF:

METAR-TAF

Oro uostai :

Maputu, Mozambikas

platuma: 25-55S, ilguma: 032-34E, Aukštis: 39 m

Dabartinis oras

Ataskaita buvo paskelbta 18 minutes, ne 05:00 UTC
Vėjas 5 kt iš Šiaurės
Temperatūra 20°C
Drėgmė 94%
Slėgis 1019 hPa
Matomumas 10 km arba daugiau
nėra debesų žemiau 1500 m ir nėra kamuolinių lietaus debesų

METAR: FQMA 180500Z 36005KT CAVOK 20/19 Q1019 NOSIG

Laikas: 07:18 (05:18 UTC)

Prognozė

Ataskaita buvo paskelbta 7 valandos ir 18 minutes, ne 22:00 UTC
Prognozė galioja nuo 18 metu 00 UTC su 19 metu 06 UTC
Vėjas 10 kt iš Šiaurės su gūsio iki 20 kt
Matomumas 10 km arba daugiau
Išsisklaidę debesys ne aukštis 2500 ft
Tapsmas
nuo 18 metu 12 UTC su 18 metu 14 UTC
Vėjas 12 kt iš Rytų/Šiaurės Rytų
Tapsmas
nuo 19 metu 00 UTC su 19 metu 02 UTC
Vėjas 10 kt iš Pietų

TAF: FQMA 172200Z 1800/1906 35010G20KT 9999 SCT025 TX34/1813Z TN19/1803Z BECMG 1812/1814 06012KT BECMG 1900/1902 17010KT

Orai ataskaitas ir orų prognozės (METAR, TAF).

turimą stotys yra geltonos ir raudonos taškus žemėlapyje.

Perkelti pele per norėdami pamatyti stoties vardą.

Tada spustelėkite, norėdami matyti oro stebėjimo ir prognozės.

Norėdami pakeisti žemėlapį: spustelėkite ant žalios mygtukų su juodo kryžiaus žemyn,; žalią mygtuką su brūkšneliu, jei norite nutolinti; arba žalių rodyklių gretimoms žemėlapius.


METAR-TAF: